sensor_id;sensor_type;location;lat;lon;timestamp;pressure;altitude;pressure_sealevel;temperature;humidity
8294;BME280;4185;41.506;24.938;2023-02-14T00:01:37;94755.19;;;-2.59;72.83
8294;BME280;4185;41.506;24.938;2023-02-14T00:04:04;94752.16;;;-2.61;72.80
8294;BME280;4185;41.506;24.938;2023-02-14T00:06:33;94757.84;;;-2.62;72.59
8294;BME280;4185;41.506;24.938;2023-02-14T00:09:03;94755.91;;;-2.65;72.71
8294;BME280;4185;41.506;24.938;2023-02-14T00:11:31;94752.47;;;-2.73;72.20
8294;BME280;4185;41.506;24.938;2023-02-14T00:13:58;94742.88;;;-2.88;72.44
8294;BME280;4185;41.506;24.938;2023-02-14T00:16:42;94750.88;;;-2.84;73.11
8294;BME280;4185;41.506;24.938;2023-02-14T00:19:11;94750.13;;;-2.85;73.27
8294;BME280;4185;41.506;24.938;2023-02-14T00:21:40;94752.38;;;-2.87;73.09
8294;BME280;4185;41.506;24.938;2023-02-14T00:24:09;94749.31;;;-2.89;72.83
8294;BME280;4185;41.506;24.938;2023-02-14T00:26:36;94748.19;;;-2.91;73.16
8294;BME280;4185;41.506;24.938;2023-02-14T00:29:04;94741.34;;;-2.89;73.16
8294;BME280;4185;41.506;24.938;2023-02-14T00:31:30;94737.44;;;-3.05;73.01
8294;BME280;4185;41.506;24.938;2023-02-14T00:33:57;94737.41;;;-3.09;73.76
8294;BME280;4185;41.506;24.938;2023-02-14T00:36:24;94733.72;;;-2.94;73.82
8294;BME280;4185;41.506;24.938;2023-02-14T00:38:52;94718.97;;;-2.88;73.61
8294;BME280;4185;41.506;24.938;2023-02-14T00:41:19;94716.25;;;-2.95;73.26
8294;BME280;4185;41.506;24.938;2023-02-14T00:43:46;94705.91;;;-3.07;73.50
8294;BME280;4185;41.506;24.938;2023-02-14T00:46:13;94714.31;;;-3.01;74.29
8294;BME280;4185;41.506;24.938;2023-02-14T00:48:40;94717.38;;;-2.96;73.87
8294;BME280;4185;41.506;24.938;2023-02-14T00:51:08;94707.09;;;-2.97;72.79
8294;BME280;4185;41.506;24.938;2023-02-14T00:53:35;94703.28;;;-3.03;72.85
8294;BME280;4185;41.506;24.938;2023-02-14T00:56:04;94699.44;;;-3.09;72.42
8294;BME280;4185;41.506;24.938;2023-02-14T00:58:31;94694.44;;;-3.18;72.71
8294;BME280;4185;41.506;24.938;2023-02-14T01:00:58;94690.94;;;-3.32;73.08
8294;BME280;4185;41.506;24.938;2023-02-14T01:03:25;94689.44;;;-3.30;73.37
8294;BME280;4185;41.506;24.938;2023-02-14T01:05:52;94681.03;;;-3.35;72.92
8294;BME280;4185;41.506;24.938;2023-02-14T01:08:19;94678.63;;;-3.51;73.65
8294;BME280;4185;41.506;24.938;2023-02-14T01:10:46;94681.75;;;-3.42;74.01
8294;BME280;4185;41.506;24.938;2023-02-14T01:13:15;94676.09;;;-3.37;74.11
8294;BME280;4185;41.506;24.938;2023-02-14T01:15:44;94678.03;;;-3.30;73.92
8294;BME280;4185;41.506;24.938;2023-02-14T01:18:12;94677.28;;;-3.31;73.47
8294;BME280;4185;41.506;24.938;2023-02-14T01:20:39;94667.72;;;-3.39;73.40
8294;BME280;4185;41.506;24.938;2023-02-14T01:23:06;94684.47;;;-3.35;73.28
8294;BME280;4185;41.506;24.938;2023-02-14T01:25:34;94689.38;;;-3.37;73.78
8294;BME280;4185;41.506;24.938;2023-02-14T01:28:02;94695.50;;;-3.29;73.60
8294;BME280;4185;41.506;24.938;2023-02-14T01:30:30;94682.97;;;-3.29;73.45
8294;BME280;4185;41.506;24.938;2023-02-14T01:32:57;94683.38;;;-3.27;73.09
8294;BME280;4185;41.506;24.938;2023-02-14T01:35:24;94675.00;;;-3.29;73.14
8294;BME280;4185;41.506;24.938;2023-02-14T01:37:51;94680.72;;;-3.27;73.20
8294;BME280;4185;41.506;24.938;2023-02-14T01:40:18;94686.41;;;-3.28;72.93
8294;BME280;4185;41.506;24.938;2023-02-14T01:42:45;94692.06;;;-3.33;72.39
8294;BME280;4185;41.506;24.938;2023-02-14T01:45:16;94687.44;;;-3.40;73.12
8294;BME280;4185;41.506;24.938;2023-02-14T01:47:47;94685.47;;;-3.50;73.64
8294;BME280;4185;41.506;24.938;2023-02-14T01:50:19;94672.50;;;-3.62;73.03
8294;BME280;4185;41.506;24.938;2023-02-14T01:52:51;94685.41;;;-3.60;72.96
8294;BME280;4185;41.506;24.938;2023-02-14T01:55:19;94686.84;;;-3.66;73.41
8294;BME280;4185;41.506;24.938;2023-02-14T01:57:50;94685.66;;;-3.72;73.16
8294;BME280;4185;41.506;24.938;2023-02-14T02:00:19;94687.56;;;-3.73;73.40
8294;BME280;4185;41.506;24.938;2023-02-14T02:03:06;94689.41;;;-3.77;73.61
8294;BME280;4185;41.506;24.938;2023-02-14T02:05:35;94687.47;;;-3.80;73.37
8294;BME280;4185;41.506;24.938;2023-02-14T02:08:03;94685.53;;;-3.87;73.62
8294;BME280;4185;41.506;24.938;2023-02-14T02:10:30;94688.91;;;-3.90;73.75
8294;BME280;4185;41.506;24.938;2023-02-14T02:13:02;94680.53;;;-3.95;73.94
8294;BME280;4185;41.506;24.938;2023-02-14T02:15:33;94673.69;;;-3.96;73.91
8294;BME280;4185;41.506;24.938;2023-02-14T02:18:07;94681.38;;;-3.88;73.76
8294;BME280;4185;41.506;24.938;2023-02-14T02:24:11;94678.78;;;-4.17;74.01
8294;BME280;4185;41.506;24.938;2023-02-14T02:27:06;94672.00;;;-4.15;74.48
8294;BME280;4185;41.506;24.938;2023-02-14T02:32:45;94668.56;;;-4.15;75.11
8294;BME280;4185;41.506;24.938;2023-02-14T02:35:22;94669.75;;;-4.13;74.94
8294;BME280;4185;41.506;24.938;2023-02-14T02:38:02;94672.03;;;-4.11;74.38
8294;BME280;4185;41.506;24.938;2023-02-14T02:40:45;94671.25;;;-4.12;74.32
8294;BME280;4185;41.506;24.938;2023-02-14T02:43:23;94667.19;;;-4.02;74.41
8294;BME280;4185;41.506;24.938;2023-02-14T02:45:58;94672.88;;;-4.00;73.73
8294;BME280;4185;41.506;24.938;2023-02-14T02:48:47;94664.53;;;-4.02;73.42
8294;BME280;4185;41.506;24.938;2023-02-14T02:51:23;94670.63;;;-3.98;73.70
8294;BME280;4185;41.506;24.938;2023-02-14T02:54:13;94658.56;;;-3.92;73.86
8294;BME280;4185;41.506;24.938;2023-02-14T02:56:46;94653.66;;;-3.90;73.23
8294;BME280;4185;41.506;24.938;2023-02-14T02:59:19;94655.47;;;-4.01;73.58
8294;BME280;4185;41.506;24.938;2023-02-14T03:01:50;94664.13;;;-4.04;73.62
8294;BME280;4185;41.506;24.938;2023-02-14T03:04:18;94667.06;;;-4.16;73.31
8294;BME280;4185;41.506;24.938;2023-02-14T03:07:05;94668.50;;;-4.22;73.69
8294;BME280;4185;41.506;24.938;2023-02-14T03:09:55;94656.38;;;-4.23;73.28
8294;BME280;4185;41.506;24.938;2023-02-14T03:15:24;94654.44;;;-4.26;74.00
8294;BME280;4185;41.506;24.938;2023-02-14T03:18:00;94647.25;;;-4.26;74.11
8294;BME280;4185;41.506;24.938;2023-02-14T03:20:36;94642.66;;;-4.29;74.57
8294;BME280;4185;41.506;24.938;2023-02-14T03:23:10;94642.31;;;-4.27;74.48
8294;BME280;4185;41.506;24.938;2023-02-14T03:25:43;94634.34;;;-4.27;74.81
8294;BME280;4185;41.506;24.938;2023-02-14T03:28:16;94638.53;;;-4.23;74.40
8294;BME280;4185;41.506;24.938;2023-02-14T03:30:51;94637.41;;;-4.25;73.78
8294;BME280;4185;41.506;24.938;2023-02-14T03:33:22;94634.28;;;-4.34;73.19
8294;BME280;4185;41.506;24.938;2023-02-14T03:35:56;94643.69;;;-4.40;73.96
8294;BME280;4185;41.506;24.938;2023-02-14T03:38:31;94636.50;;;-4.36;74.43
8294;BME280;4185;41.506;24.938;2023-02-14T03:41:00;94630.88;;;-4.35;74.02
8294;BME280;4185;41.506;24.938;2023-02-14T03:43:30;94615.50;;;-4.55;73.99
8294;BME280;4185;41.506;24.938;2023-02-14T03:46:04;94618.47;;;-4.60;74.33
8294;BME280;4185;41.506;24.938;2023-02-14T03:48:34;94615.91;;;-4.53;74.41
8294;BME280;4185;41.506;24.938;2023-02-14T03:51:03;94614.03;;;-4.49;74.06
8294;BME280;4185;41.506;24.938;2023-02-14T03:53:35;94609.50;;;-4.49;74.03
8294;BME280;4185;41.506;24.938;2023-02-14T03:56:07;94606.41;;;-4.54;73.94
8294;BME280;4185;41.506;24.938;2023-02-14T03:58:38;94592.72;;;-4.60;74.08
8294;BME280;4185;41.506;24.938;2023-02-14T04:01:07;94583.97;;;-4.64;74.41
8294;BME280;4185;41.506;24.938;2023-02-14T04:03:38;94588.91;;;-4.62;75.01
8294;BME280;4185;41.506;24.938;2023-02-14T04:06:07;94594.22;;;-4.62;75.14
8294;BME280;4185;41.506;24.938;2023-02-14T04:08:35;94584.84;;;-4.53;75.19
8294;BME280;4185;41.506;24.938;2023-02-14T04:11:03;94581.47;;;-4.50;74.68
8294;BME280;4185;41.506;24.938;2023-02-14T04:13:30;94577.66;;;-4.52;73.99
8294;BME280;4185;41.506;24.938;2023-02-14T04:15:57;94582.94;;;-4.52;74.80
8294;BME280;4185;41.506;24.938;2023-02-14T04:18:24;94594.28;;;-4.55;75.06
8294;BME280;4185;41.506;24.938;2023-02-14T04:21:08;94591.38;;;-4.43;74.64
8294;BME280;4185;41.506;24.938;2023-02-14T04:23:37;94589.56;;;-4.36;74.82
8294;BME280;4185;41.506;24.938;2023-02-14T04:26:03;94595.28;;;-4.30;74.04
8294;BME280;4185;41.506;24.938;2023-02-14T04:28:30;94595.28;;;-4.30;73.57
8294;BME280;4185;41.506;24.938;2023-02-14T04:30:59;94585.38;;;-4.37;73.67
8294;BME280;4185;41.506;24.938;2023-02-14T04:33:26;94584.09;;;-4.53;73.92
8294;BME280;4185;41.506;24.938;2023-02-14T04:35:53;94579.75;;;-4.68;73.63
8294;BME280;4185;41.506;24.938;2023-02-14T04:38:20;94577.41;;;-4.77;74.94
8294;BME280;4185;41.506;24.938;2023-02-14T04:40:49;94572.88;;;-4.73;75.27
8294;BME280;4185;41.506;24.938;2023-02-14T04:43:16;94568.44;;;-4.65;75.17
8294;BME280;4185;41.506;24.938;2023-02-14T04:45:43;94568.34;;;-4.72;74.72
8294;BME280;4185;41.506;24.938;2023-02-14T04:48:10;94569.00;;;-4.82;74.64
8294;BME280;4185;41.506;24.938;2023-02-14T04:50:37;94567.09;;;-4.85;75.91
8294;BME280;4185;41.506;24.938;2023-02-14T04:53:03;94566.69;;;-4.87;75.65
8294;BME280;4185;41.506;24.938;2023-02-14T04:55:30;94560.72;;;-4.77;76.43
8294;BME280;4185;41.506;24.938;2023-02-14T04:57:58;94557.81;;;-4.69;75.92
8294;BME280;4185;41.506;24.938;2023-02-14T05:00:25;94554.69;;;-4.74;75.67
8294;BME280;4185;41.506;24.938;2023-02-14T05:02:52;94557.81;;;-4.69;76.08
8294;BME280;4185;41.506;24.938;2023-02-14T05:05:18;94568.44;;;-4.65;75.58
8294;BME280;4185;41.506;24.938;2023-02-14T05:07:45;94568.13;;;-4.60;74.77
8294;BME280;4185;41.506;24.938;2023-02-14T05:10:12;94570.81;;;-4.57;74.77
8294;BME280;4185;41.506;24.938;2023-02-14T05:12:39;94567.38;;;-4.57;74.49
8294;BME280;4185;41.506;24.938;2023-02-14T05:15:08;94552.59;;;-4.58;74.27
8294;BME280;4185;41.506;24.938;2023-02-14T05:17:35;94556.41;;;-4.56;74.75
8294;BME280;4185;41.506;24.938;2023-02-14T05:20:03;94557.09;;;-4.62;74.29
8294;BME280;4185;41.506;24.938;2023-02-14T05:22:30;94567.63;;;-4.69;74.29
8294;BME280;4185;41.506;24.938;2023-02-14T05:24:57;94560.97;;;-4.89;74.44
8294;BME280;4185;41.506;24.938;2023-02-14T05:27:24;94553.09;;;-4.82;74.71
8294;BME280;4185;41.506;24.938;2023-02-14T05:29:51;94565.22;;;-4.81;74.92
8294;BME280;4185;41.506;24.938;2023-02-14T05:32:19;94574.34;;;-4.79;75.13
8294;BME280;4185;41.506;24.938;2023-02-14T05:34:46;94563.72;;;-4.82;74.83
8294;BME280;4185;41.506;24.938;2023-02-14T05:37:12;94554.13;;;-4.94;74.38
8294;BME280;4185;41.506;24.938;2023-02-14T05:39:39;94555.81;;;-5.09;75.01
8294;BME280;4185;41.506;24.938;2023-02-14T05:42:06;94557.84;;;-4.99;75.61
8294;BME280;4185;41.506;24.938;2023-02-14T05:44:33;94553.75;;;-4.92;75.42
8294;BME280;4185;41.506;24.938;2023-02-14T05:47:00;94550.34;;;-4.93;75.01
8294;BME280;4185;41.506;24.938;2023-02-14T05:49:28;94556.81;;;-4.90;75.30
8294;BME280;4185;41.506;24.938;2023-02-14T05:51:54;94556.16;;;-4.80;75.41
8294;BME280;4185;41.506;24.938;2023-02-14T05:54:21;94564.50;;;-4.78;74.72
8294;BME280;4185;41.506;24.938;2023-02-14T05:56:48;94568.69;;;-4.77;75.23
8294;BME280;4185;41.506;24.938;2023-02-14T05:59:15;94562.97;;;-4.79;74.87
8294;BME280;4185;41.506;24.938;2023-02-14T06:01:42;94561.47;;;-4.80;75.43
8294;BME280;4185;41.506;24.938;2023-02-14T06:04:08;94560.50;;;-4.65;74.35
8294;BME280;4185;41.506;24.938;2023-02-14T06:06:37;94557.91;;;-4.58;73.39
8294;BME280;4185;41.506;24.938;2023-02-14T06:09:03;94553.75;;;-4.56;73.15
8294;BME280;4185;41.506;24.938;2023-02-14T06:11:30;94550.75;;;-4.54;73.28
8294;BME280;4185;41.506;24.938;2023-02-14T06:13:57;94548.75;;;-4.64;73.06
8294;BME280;4185;41.506;24.938;2023-02-14T06:16:24;94538.81;;;-4.74;74.33
8294;BME280;4185;41.506;24.938;2023-02-14T06:18:50;94545.69;;;-4.66;74.82
8294;BME280;4185;41.506;24.938;2023-02-14T06:21:17;94540.50;;;-4.56;75.18
8294;BME280;4185;41.506;24.938;2023-02-14T06:23:45;94542.56;;;-4.39;74.78
8294;BME280;4185;41.506;24.938;2023-02-14T06:26:13;94530.94;;;-4.24;74.27
8294;BME280;4185;41.506;24.938;2023-02-14T06:28:40;94528.75;;;-4.15;74.01
8294;BME280;4185;41.506;24.938;2023-02-14T06:31:07;94522.72;;;-4.08;73.48
8294;BME280;4185;41.506;24.938;2023-02-14T06:33:35;94520.47;;;-4.06;74.02
8294;BME280;4185;41.506;24.938;2023-02-14T06:36:02;94515.22;;;-3.99;74.05
8294;BME280;4185;41.506;24.938;2023-02-14T06:38:29;94521.69;;;-3.93;72.92
8294;BME280;4185;41.506;24.938;2023-02-14T06:41:03;94509.22;;;-3.93;72.50
8294;BME280;4185;41.506;24.938;2023-02-14T06:43:30;94513.03;;;-3.87;72.31
8294;BME280;4185;41.506;24.938;2023-02-14T06:45:57;94517.63;;;-3.77;72.22
8294;BME280;4185;41.506;24.938;2023-02-14T06:48:24;94513.91;;;-3.65;72.56
8294;BME280;4185;41.506;24.938;2023-02-14T06:50:50;94509.78;;;-3.59;73.03
8294;BME280;4185;41.506;24.938;2023-02-14T06:53:17;94510.94;;;-3.56;72.69
8294;BME280;4185;41.506;24.938;2023-02-14T06:55:44;94510.19;;;-3.50;72.69
8294;BME280;4185;41.506;24.938;2023-02-14T06:58:12;94501.53;;;-3.43;73.18
8294;BME280;4185;41.506;24.938;2023-02-14T07:00:39;94493.16;;;-3.49;73.69
8294;BME280;4185;41.506;24.938;2023-02-14T07:03:06;94487.88;;;-3.45;74.61
8294;BME280;4185;41.506;24.938;2023-02-14T07:05:33;94484.50;;;-3.35;74.13
8294;BME280;4185;41.506;24.938;2023-02-14T07:08:01;94476.53;;;-3.32;74.56
8294;BME280;4185;41.506;24.938;2023-02-14T07:10:27;94473.13;;;-3.29;74.47
8294;BME280;4185;41.506;24.938;2023-02-14T07:12:54;94471.97;;;-3.28;76.15
8294;BME280;4185;41.506;24.938;2023-02-14T07:15:22;94474.72;;;-3.07;76.05
8294;BME280;4185;41.506;24.938;2023-02-14T07:17:49;94477.06;;;-2.88;75.70
8294;BME280;4185;41.506;24.938;2023-02-14T07:20:16;94488.09;;;-2.72;75.47
8294;BME280;4185;41.506;24.938;2023-02-14T07:22:43;94478.25;;;-2.57;74.88
8294;BME280;4185;41.506;24.938;2023-02-14T07:25:10;94479.41;;;-2.47;74.62
8294;BME280;4185;41.506;24.938;2023-02-14T07:27:38;94474.09;;;-2.33;74.88
8294;BME280;4185;41.506;24.938;2023-02-14T07:30:06;94471.81;;;-2.17;74.33
8294;BME280;4185;41.506;24.938;2023-02-14T07:32:35;94464.94;;;-2.04;73.99
8294;BME280;4185;41.506;24.938;2023-02-14T07:35:02;94458.84;;;-1.94;73.42
8294;BME280;4185;41.506;24.938;2023-02-14T07:37:31;94449.72;;;-1.86;74.27
8294;BME280;4185;41.506;24.938;2023-02-14T07:39:57;94448.94;;;-1.76;74.21
8294;BME280;4185;41.506;24.938;2023-02-14T07:42:24;94447.38;;;-1.67;73.93
8294;BME280;4185;41.506;24.938;2023-02-14T07:44:51;94455.75;;;-1.54;74.08
8294;BME280;4185;41.506;24.938;2023-02-14T07:47:18;94446.59;;;-1.53;73.17
8294;BME280;4185;41.506;24.938;2023-02-14T07:49:46;94456.06;;;-1.45;73.54
8294;BME280;4185;41.506;24.938;2023-02-14T07:52:13;94452.22;;;-1.30;74.29
8294;BME280;4185;41.506;24.938;2023-02-14T07:54:39;94444.94;;;-1.15;73.80
8294;BME280;4185;41.506;24.938;2023-02-14T07:57:06;94442.56;;;-1.03;72.71
8294;BME280;4185;41.506;24.938;2023-02-14T07:59:33;94441.75;;;-0.93;72.72
8294;BME280;4185;41.506;24.938;2023-02-14T08:02:00;94443.97;;;-0.81;71.98
8294;BME280;4185;41.506;24.938;2023-02-14T08:04:27;94429.47;;;-0.73;71.92
8294;BME280;4185;41.506;24.938;2023-02-14T08:06:55;94435.53;;;-0.69;72.01
8294;BME280;4185;41.506;24.938;2023-02-14T08:09:22;94425.59;;;-0.65;71.18
8294;BME280;4185;41.506;24.938;2023-02-14T08:11:53;94421.69;;;-0.53;70.97
8294;BME280;4185;41.506;24.938;2023-02-14T08:14:38;94414.75;;;-0.44;70.89
8294;BME280;4185;41.506;24.938;2023-02-14T08:17:05;94414.66;;;-0.30;71.08
8294;BME280;4185;41.506;24.938;2023-02-14T08:19:33;94417.22;;;-0.16;70.91
8294;BME280;4185;41.506;24.938;2023-02-14T08:22:01;94407.56;;;-0.03;71.19
8294;BME280;4185;41.506;24.938;2023-02-14T08:24:28;94397.47;;;0.12;70.77
8294;BME280;4185;41.506;24.938;2023-02-14T08:26:56;94392.03;;;0.23;69.82
8294;BME280;4185;41.506;24.938;2023-02-14T08:29:23;94396.88;;;0.35;69.47
8294;BME280;4185;41.506;24.938;2023-02-14T08:31:50;94383.41;;;0.45;68.77
8294;BME280;4185;41.506;24.938;2023-02-14T08:34:17;94385.16;;;0.59;67.35
8294;BME280;4185;41.506;24.938;2023-02-14T08:36:44;94385.75;;;0.70;65.65
8294;BME280;4185;41.506;24.938;2023-02-14T08:39:13;94390.59;;;0.82;65.68
8294;BME280;4185;41.506;24.938;2023-02-14T08:41:39;94395.75;;;0.96;62.85
8294;BME280;4185;41.506;24.938;2023-02-14T08:44:06;94391.00;;;1.07;61.58
8294;BME280;4185;41.506;24.938;2023-02-14T08:46:34;94392.03;;;1.16;59.65
8294;BME280;4185;41.506;24.938;2023-02-14T08:49:01;94390.72;;;1.28;57.86
8294;BME280;4185;41.506;24.938;2023-02-14T08:51:28;94388.63;;;1.39;57.52
8294;BME280;4185;41.506;24.938;2023-02-14T08:53:55;94395.66;;;1.56;57.57
8294;BME280;4185;41.506;24.938;2023-02-14T08:56:23;94392.00;;;1.70;56.99
8294;BME280;4185;41.506;24.938;2023-02-14T08:58:51;94402.13;;;1.82;55.99
8294;BME280;4185;41.506;24.938;2023-02-14T09:01:19;94396.19;;;1.94;55.96
8294;BME280;4185;41.506;24.938;2023-02-14T09:03:45;94393.22;;;2.11;55.33
8294;BME280;4185;41.506;24.938;2023-02-14T09:06:14;94398.31;;;2.25;54.94
8294;BME280;4185;41.506;24.938;2023-02-14T09:08:42;94393.84;;;2.38;54.70
8294;BME280;4185;41.506;24.938;2023-02-14T09:11:11;94396.97;;;2.57;55.06
8294;BME280;4185;41.506;24.938;2023-02-14T09:13:40;94404.72;;;2.71;54.37
8294;BME280;4185;41.506;24.938;2023-02-14T09:16:09;94401.84;;;2.81;53.65
8294;BME280;4185;41.506;24.938;2023-02-14T09:18:36;94404.66;;;2.94;53.40
8294;BME280;4185;41.506;24.938;2023-02-14T09:21:07;94401.22;;;3.13;53.74
8294;BME280;4185;41.506;24.938;2023-02-14T09:23:34;94392.09;;;3.26;53.54
8294;BME280;4185;41.506;24.938;2023-02-14T09:26:01;94390.53;;;3.45;53.56
8294;BME280;4185;41.506;24.938;2023-02-14T09:28:28;94393.56;;;3.63;53.40
8294;BME280;4185;41.506;24.938;2023-02-14T09:30:57;94389.69;;;3.80;53.81
8294;BME280;4185;41.506;24.938;2023-02-14T09:33:26;94395.06;;;3.96;53.20
8294;BME280;4185;41.506;24.938;2023-02-14T09:35:53;94390.75;;;4.15;52.08
8294;BME280;4185;41.506;24.938;2023-02-14T09:38:38;94384.41;;;4.37;50.07
8294;BME280;4185;41.506;24.938;2023-02-14T09:41:05;94371.66;;;4.54;49.74
8294;BME280;4185;41.506;24.938;2023-02-14T09:43:37;94373.13;;;4.71;49.31
8294;BME280;4185;41.506;24.938;2023-02-14T09:46:07;94359.47;;;4.90;48.39
8294;BME280;4185;41.506;24.938;2023-02-14T09:48:38;94355.75;;;5.13;46.63
8294;BME280;4185;41.506;24.938;2023-02-14T09:51:11;94345.31;;;5.28;42.88
8294;BME280;4185;41.506;24.938;2023-02-14T09:53:43;94339.28;;;5.49;40.81
8294;BME280;4185;41.506;24.938;2023-02-14T09:56:15;94335.94;;;5.70;41.10
8294;BME280;4185;41.506;24.938;2023-02-14T09:58:50;94327.28;;;5.75;38.19
8294;BME280;4185;41.506;24.938;2023-02-14T10:01:22;94332.13;;;5.92;37.81
8294;BME280;4185;41.506;24.938;2023-02-14T10:04:18;94330.66;;;6.13;38.89
8294;BME280;4185;41.506;24.938;2023-02-14T10:06:51;94330.31;;;6.24;38.47
8294;BME280;4185;41.506;24.938;2023-02-14T10:09:35;94326.06;;;6.35;35.30
8294;BME280;4185;41.506;24.938;2023-02-14T10:12:20;94316.91;;;6.54;34.84
8294;BME280;4185;41.506;24.938;2023-02-14T10:14:49;94322.53;;;6.69;35.14
8294;BME280;4185;41.506;24.938;2023-02-14T10:17:22;94321.91;;;6.86;35.92
8294;BME280;4185;41.506;24.938;2023-02-14T10:19:53;94313.28;;;7.00;35.10
8294;BME280;4185;41.506;24.938;2023-02-14T10:22:23;94311.38;;;7.10;35.67
8294;BME280;4185;41.506;24.938;2023-02-14T10:24:59;94304.19;;;7.16;34.10
8294;BME280;4185;41.506;24.938;2023-02-14T10:27:31;94304.72;;;7.32;33.35
8294;BME280;4185;41.506;24.938;2023-02-14T10:29:59;94311.53;;;7.46;31.36
8294;BME280;4185;41.506;24.938;2023-02-14T10:32:36;94309.94;;;7.58;31.01
8294;BME280;4185;41.506;24.938;2023-02-14T10:35:17;94307.28;;;7.76;32.74
8294;BME280;4185;41.506;24.938;2023-02-14T10:37:56;94305.19;;;7.89;32.89
8294;BME280;4185;41.506;24.938;2023-02-14T10:40:35;94301.00;;;8.06;33.27
8294;BME280;4185;41.506;24.938;2023-02-14T10:43:14;94291.06;;;8.12;32.74
8294;BME280;4185;41.506;24.938;2023-02-14T10:45:48;94280.00;;;8.28;32.23
8294;BME280;4185;41.506;24.938;2023-02-14T10:48:27;94279.53;;;8.29;31.97
8294;BME280;4185;41.506;24.938;2023-02-14T10:51:02;94273.69;;;8.40;33.55
8294;BME280;4185;41.506;24.938;2023-02-14T10:53:35;94264.75;;;8.67;34.38
8294;BME280;4185;41.506;24.938;2023-02-14T10:56:12;94273.28;;;8.92;34.75
8294;BME280;4185;41.506;24.938;2023-02-14T10:58:43;94256.22;;;9.10;34.08
8294;BME280;4185;41.506;24.938;2023-02-14T11:01:13;94251.22;;;9.17;34.75
8294;BME280;4185;41.506;24.938;2023-02-14T11:03:50;94242.44;;;9.31;33.79
8294;BME280;4185;41.506;24.938;2023-02-14T11:06:17;94238.47;;;9.41;33.60
8294;BME280;4185;41.506;24.938;2023-02-14T11:08:44;94238.69;;;9.52;33.66
8294;BME280;4185;41.506;24.938;2023-02-14T11:11:17;94245.34;;;9.75;34.44
8294;BME280;4185;41.506;24.938;2023-02-14T11:13:46;94245.78;;;9.82;33.00
8294;BME280;4185;41.506;24.938;2023-02-14T11:16:26;94238.06;;;9.81;33.33
8294;BME280;4185;41.506;24.938;2023-02-14T11:19:07;94243.75;;;9.92;33.29
8294;BME280;4185;41.506;24.938;2023-02-14T11:21:37;94236.69;;;9.85;32.87
8294;BME280;4185;41.506;24.938;2023-02-14T11:24:15;94233.97;;;9.85;33.65
8294;BME280;4185;41.506;24.938;2023-02-14T11:26:45;94232.91;;;10.07;33.92
8294;BME280;4185;41.506;24.938;2023-02-14T11:29:15;94231.22;;;10.33;34.45
8294;BME280;4185;41.506;24.938;2023-02-14T11:31:44;94223.50;;;10.55;33.92
8294;BME280;4185;41.506;24.938;2023-02-14T11:34:26;94219.63;;;10.76;34.42
8294;BME280;4185;41.506;24.938;2023-02-14T11:36:56;94212.50;;;10.93;33.77
8294;BME280;4185;41.506;24.938;2023-02-14T11:39:28;94208.19;;;11.01;33.21
8294;BME280;4185;41.506;24.938;2023-02-14T11:41:58;94205.19;;;11.14;33.93
8294;BME280;4185;41.506;24.938;2023-02-14T11:44:26;94208.97;;;11.36;32.67
8294;BME280;4185;41.506;24.938;2023-02-14T11:46:55;94192.53;;;11.45;33.54
8294;BME280;4185;41.506;24.938;2023-02-14T11:49:33;94190.66;;;11.51;33.10
8294;BME280;4185;41.506;24.938;2023-02-14T11:52:13;94183.38;;;11.63;33.46
8294;BME280;4185;41.506;24.938;2023-02-14T11:54:48;94165.59;;;11.47;33.30
8294;BME280;4185;41.506;24.938;2023-02-14T11:57:38;94169.31;;;11.64;33.09
8294;BME280;4185;41.506;24.938;2023-02-14T12:00:13;94174.47;;;11.82;32.38
8294;BME280;4185;41.506;24.938;2023-02-14T12:02:43;94157.06;;;11.74;32.26
8294;BME280;4185;41.506;24.938;2023-02-14T12:05:18;94161.00;;;12.13;32.92
8294;BME280;4185;41.506;24.938;2023-02-14T12:07:47;94156.72;;;12.33;32.36
8294;BME280;4185;41.506;24.938;2023-02-14T12:10:24;94160.03;;;12.42;32.01
8294;BME280;4185;41.506;24.938;2023-02-14T12:12:54;94164.94;;;12.64;32.06
8294;BME280;4185;41.506;24.938;2023-02-14T12:15:27;94163.53;;;12.74;31.90
8294;BME280;4185;41.506;24.938;2023-02-14T12:17:59;94159.50;;;12.95;32.52
8294;BME280;4185;41.506;24.938;2023-02-14T12:20:36;94148.25;;;13.13;31.76
8294;BME280;4185;41.506;24.938;2023-02-14T12:23:09;94148.78;;;13.17;30.67
8294;BME280;4185;41.506;24.938;2023-02-14T12:25:44;94144.44;;;13.36;31.14
8294;BME280;4185;41.506;24.938;2023-02-14T12:28:17;94140.28;;;13.52;30.62
8294;BME280;4185;41.506;24.938;2023-02-14T12:30:45;94143.41;;;13.81;31.36
8294;BME280;4185;41.506;24.938;2023-02-14T12:33:17;94141.97;;;13.91;29.56
8294;BME280;4185;41.506;24.938;2023-02-14T12:35:53;94140.97;;;13.94;29.58
8294;BME280;4185;41.506;24.938;2023-02-14T12:38:30;94151.19;;;14.05;30.12
8294;BME280;4185;41.506;24.938;2023-02-14T12:41:11;94150.50;;;14.15;29.50
8294;BME280;4185;41.506;24.938;2023-02-14T12:43:45;94150.56;;;14.32;29.53
8294;BME280;4185;41.506;24.938;2023-02-14T12:46:32;94137.44;;;14.52;29.72
8294;BME280;4185;41.506;24.938;2023-02-14T12:52:12;94130.00;;;14.64;29.83
8294;BME280;4185;41.506;24.938;2023-02-14T12:54:53;94129.25;;;14.69;29.22
8294;BME280;4185;41.506;24.938;2023-02-14T12:57:34;94123.53;;;14.73;28.57
8294;BME280;4185;41.506;24.938;2023-02-14T13:00:18;94127.72;;;14.51;28.75
8294;BME280;4185;41.506;24.938;2023-02-14T13:05:54;94112.09;;;14.68;28.35
8294;BME280;4185;41.506;24.938;2023-02-14T13:08:39;94114.31;;;14.59;28.04
8294;BME280;4185;41.506;24.938;2023-02-14T13:11:18;94117.28;;;14.44;28.52
8294;BME280;4185;41.506;24.938;2023-02-14T13:13:55;94115.72;;;14.21;28.45
8294;BME280;4185;41.506;24.938;2023-02-14T13:16:34;94123.97;;;14.27;29.33
8294;BME280;4185;41.506;24.938;2023-02-14T13:19:08;94119.78;;;14.53;29.05
8294;BME280;4185;41.506;24.938;2023-02-14T13:21:37;94112.34;;;14.71;27.90
8294;BME280;4185;41.506;24.938;2023-02-14T13:24:16;94118.53;;;14.49;27.65
8294;BME280;4185;41.506;24.938;2023-02-14T13:26:47;94122.53;;;14.70;28.79
8294;BME280;4185;41.506;24.938;2023-02-14T13:29:20;94124.00;;;14.99;28.46
8294;BME280;4185;41.506;24.938;2023-02-14T13:31:49;94124.75;;;14.99;27.80
8294;BME280;4185;41.506;24.938;2023-02-14T13:34:25;94120.78;;;14.89;28.34
8294;BME280;4185;41.506;24.938;2023-02-14T13:36:55;94120.28;;;15.02;28.15
8294;BME280;4185;41.506;24.938;2023-02-14T13:39:29;94121.78;;;15.03;28.45
8294;BME280;4185;41.506;24.938;2023-02-14T13:41:58;94132.94;;;15.21;28.29
8294;BME280;4185;41.506;24.938;2023-02-14T13:44:41;94126.69;;;15.54;27.46
8294;BME280;4185;41.506;24.938;2023-02-14T13:47:15;94127.59;;;15.73;27.85